sensor_id;sensor_type;location;lat;lon;timestamp;pressure;altitude;pressure_sealevel;temperature;humidity
25238;BME280;13185;50.872;5.306;2023-07-16T00:01:41;100659.00;;;18.06;98.65
25238;BME280;13185;50.872;5.306;2023-07-16T00:04:07;100660.88;;;18.05;98.65
25238;BME280;13185;50.872;5.306;2023-07-16T00:06:32;100659.28;;;18.03;99.29
25238;BME280;13185;50.872;5.306;2023-07-16T00:08:59;100675.56;;;18.03;99.63
25238;BME280;13185;50.872;5.306;2023-07-16T00:11:24;100664.16;;;17.99;100.00
25238;BME280;13185;50.872;5.306;2023-07-16T00:13:50;100674.88;;;18.01;100.00
25238;BME280;13185;50.872;5.306;2023-07-16T00:16:15;100669.75;;;17.98;100.00
25238;BME280;13185;50.872;5.306;2023-07-16T00:18:43;100662.78;;;17.95;100.00
25238;BME280;13185;50.872;5.306;2023-07-16T00:21:09;100667.78;;;17.90;100.00
25238;BME280;13185;50.872;5.306;2023-07-16T00:23:34;100669.81;;;17.88;100.00
25238;BME280;13185;50.872;5.306;2023-07-16T00:26:00;100663.84;;;17.84;100.00
25238;BME280;13185;50.872;5.306;2023-07-16T00:28:25;100661.13;;;17.84;100.00
25238;BME280;13185;50.872;5.306;2023-07-16T00:30:51;100660.44;;;17.82;100.00
25238;BME280;13185;50.872;5.306;2023-07-16T00:33:16;100653.44;;;17.80;100.00
25238;BME280;13185;50.872;5.306;2023-07-16T00:35:48;100669.84;;;17.78;100.00
25238;BME280;13185;50.872;5.306;2023-07-16T00:38:16;100668.47;;;17.74;100.00
25238;BME280;13185;50.872;5.306;2023-07-16T00:40:42;100664.03;;;17.73;100.00
25238;BME280;13185;50.872;5.306;2023-07-16T00:43:07;100680.47;;;17.72;100.00
25238;BME280;13185;50.872;5.306;2023-07-16T00:45:33;100667.75;;;17.72;100.00
25238;BME280;13185;50.872;5.306;2023-07-16T00:47:58;100678.00;;;17.69;100.00
25238;BME280;13185;50.872;5.306;2023-07-16T00:50:24;100685.28;;;17.68;100.00
25238;BME280;13185;50.872;5.306;2023-07-16T00:52:49;100687.72;;;17.71;100.00
25238;BME280;13185;50.872;5.306;2023-07-16T00:55:15;100685.00;;;17.71;100.00
25238;BME280;13185;50.872;5.306;2023-07-16T00:57:41;100686.13;;;17.69;100.00
25238;BME280;13185;50.872;5.306;2023-07-16T01:00:08;100687.28;;;17.66;100.00
25238;BME280;13185;50.872;5.306;2023-07-16T01:02:35;100689.31;;;17.64;100.00
25238;BME280;13185;50.872;5.306;2023-07-16T01:05:01;100690.75;;;17.58;100.00
25238;BME280;13185;50.872;5.306;2023-07-16T01:07:27;100680.22;;;17.55;100.00
25238;BME280;13185;50.872;5.306;2023-07-16T01:09:55;100682.91;;;17.55;100.00
25238;BME280;13185;50.872;5.306;2023-07-16T01:12:22;100683.91;;;17.54;100.00
25238;BME280;13185;50.872;5.306;2023-07-16T01:14:51;100686.94;;;17.51;100.00
25238;BME280;13185;50.872;5.306;2023-07-16T01:17:17;100691.63;;;17.49;100.00
25238;BME280;13185;50.872;5.306;2023-07-16T01:19:43;100687.38;;;17.47;100.00
25238;BME280;13185;50.872;5.306;2023-07-16T01:22:27;100692.09;;;17.45;100.00
25238;BME280;13185;50.872;5.306;2023-07-16T01:30:28;100686.81;;;17.43;100.00
25238;BME280;13185;50.872;5.306;2023-07-16T01:32:55;100685.38;;;17.39;100.00
25238;BME280;13185;50.872;5.306;2023-07-16T01:35:22;100692.13;;;17.35;100.00
25238;BME280;13185;50.872;5.306;2023-07-16T01:37:48;100690.28;;;17.26;100.00
25238;BME280;13185;50.872;5.306;2023-07-16T01:40:14;100691.72;;;17.20;100.00
25238;BME280;13185;50.872;5.306;2023-07-16T01:42:40;100697.28;;;17.19;100.00
25238;BME280;13185;50.872;5.306;2023-07-16T01:45:06;100708.41;;;17.16;100.00
25238;BME280;13185;50.872;5.306;2023-07-16T01:47:57;100707.88;;;17.12;100.00
25238;BME280;13185;50.872;5.306;2023-07-16T01:50:25;100716.00;;;17.12;100.00
25238;BME280;13185;50.872;5.306;2023-07-16T01:52:51;100714.84;;;17.15;100.00
25238;BME280;13185;50.872;5.306;2023-07-16T01:55:16;100715.84;;;17.14;100.00
25238;BME280;13185;50.872;5.306;2023-07-16T01:57:42;100718.00;;;17.10;100.00
25238;BME280;13185;50.872;5.306;2023-07-16T02:00:08;100719.97;;;17.08;99.98
25238;BME280;13185;50.872;5.306;2023-07-16T02:02:44;100724.97;;;17.03;99.61
25238;BME280;13185;50.872;5.306;2023-07-16T02:05:12;100719.72;;;17.01;98.19
25238;BME280;13185;50.872;5.306;2023-07-16T02:07:37;100727.13;;;16.99;97.70
25238;BME280;13185;50.872;5.306;2023-07-16T02:10:03;100727.53;;;16.95;97.52
25238;BME280;13185;50.872;5.306;2023-07-16T02:12:28;100730.56;;;16.92;96.97
25238;BME280;13185;50.872;5.306;2023-07-16T02:14:54;100732.69;;;16.88;96.99
25238;BME280;13185;50.872;5.306;2023-07-16T02:17:19;100738.38;;;16.85;96.66
25238;BME280;13185;50.872;5.306;2023-07-16T02:19:46;100743.25;;;16.82;96.29
25238;BME280;13185;50.872;5.306;2023-07-16T02:22:11;100742.09;;;16.74;95.99
25238;BME280;13185;50.872;5.306;2023-07-16T02:24:37;100743.53;;;16.69;95.42
25238;BME280;13185;50.872;5.306;2023-07-16T02:27:03;100751.03;;;16.65;94.28
25238;BME280;13185;50.872;5.306;2023-07-16T02:29:28;100748.03;;;16.59;91.67
25238;BME280;13185;50.872;5.306;2023-07-16T02:31:54;100753.59;;;16.57;90.30
25238;BME280;13185;50.872;5.306;2023-07-16T02:34:19;100753.00;;;16.54;89.65
25238;BME280;13185;50.872;5.306;2023-07-16T02:36:44;100754.00;;;16.53;89.33
25238;BME280;13185;50.872;5.306;2023-07-16T02:39:10;100761.41;;;16.51;89.31
25238;BME280;13185;50.872;5.306;2023-07-16T02:41:35;100758.00;;;16.49;89.35
25238;BME280;13185;50.872;5.306;2023-07-16T02:44:04;100766.13;;;16.49;89.16
25238;BME280;13185;50.872;5.306;2023-07-16T02:46:30;100765.28;;;16.48;89.00
25238;BME280;13185;50.872;5.306;2023-07-16T02:48:55;100760.72;;;16.49;89.18
25238;BME280;13185;50.872;5.306;2023-07-16T02:51:21;100760.09;;;16.45;89.06
25238;BME280;13185;50.872;5.306;2023-07-16T02:53:46;100767.53;;;16.43;89.14
25238;BME280;13185;50.872;5.306;2023-07-16T02:56:12;100751.56;;;16.40;89.27
25238;BME280;13185;50.872;5.306;2023-07-16T02:58:37;100758.22;;;16.36;89.65
25238;BME280;13185;50.872;5.306;2023-07-16T03:01:03;100762.50;;;16.29;90.48
25238;BME280;13185;50.872;5.306;2023-07-16T03:03:29;100764.34;;;16.19;91.28
25238;BME280;13185;50.872;5.306;2023-07-16T03:05:55;100775.97;;;16.09;92.00
25238;BME280;13185;50.872;5.306;2023-07-16T03:08:20;100767.53;;;16.03;92.62
25238;BME280;13185;50.872;5.306;2023-07-16T03:10:46;100769.66;;;15.99;92.62
25238;BME280;13185;50.872;5.306;2023-07-16T03:13:11;100776.22;;;15.97;91.50
25238;BME280;13185;50.872;5.306;2023-07-16T03:15:38;100773.66;;;15.95;90.03
25238;BME280;13185;50.872;5.306;2023-07-16T03:18:03;100776.94;;;15.99;89.84
25238;BME280;13185;50.872;5.306;2023-07-16T03:20:29;100773.66;;;15.95;89.46
25238;BME280;13185;50.872;5.306;2023-07-16T03:22:54;100787.75;;;15.99;89.16
25238;BME280;13185;50.872;5.306;2023-07-16T03:25:20;100791.31;;;15.99;88.13
25238;BME280;13185;50.872;5.306;2023-07-16T03:27:45;100790.84;;;15.94;87.88
25238;BME280;13185;50.872;5.306;2023-07-16T03:30:11;100794.53;;;15.93;88.07
25238;BME280;13185;50.872;5.306;2023-07-16T03:32:37;100794.44;;;15.95;88.43
25238;BME280;13185;50.872;5.306;2023-07-16T03:35:02;100796.41;;;15.93;88.41
25238;BME280;13185;50.872;5.306;2023-07-16T03:37:28;100797.38;;;15.92;88.33
25238;BME280;13185;50.872;5.306;2023-07-16T03:39:54;100799.38;;;15.90;88.71
25238;BME280;13185;50.872;5.306;2023-07-16T03:42:19;100810.72;;;15.83;88.98
25238;BME280;13185;50.872;5.306;2023-07-16T03:44:45;100819.13;;;15.80;89.66
25238;BME280;13185;50.872;5.306;2023-07-16T03:47:11;100817.81;;;15.75;89.82
25238;BME280;13185;50.872;5.306;2023-07-16T03:49:36;100824.59;;;15.69;90.48
25238;BME280;13185;50.872;5.306;2023-07-16T03:52:02;100829.44;;;15.66;91.13
25238;BME280;13185;50.872;5.306;2023-07-16T03:54:27;100827.84;;;15.63;91.29
25238;BME280;13185;50.872;5.306;2023-07-16T03:56:54;100835.22;;;15.61;91.78
25238;BME280;13185;50.872;5.306;2023-07-16T03:59:19;100823.91;;;15.56;92.01
25238;BME280;13185;50.872;5.306;2023-07-16T04:01:45;100826.00;;;15.52;92.55
25238;BME280;13185;50.872;5.306;2023-07-16T04:04:11;100828.13;;;15.49;93.06
25238;BME280;13185;50.872;5.306;2023-07-16T04:06:36;100828.97;;;15.49;93.07
25238;BME280;13185;50.872;5.306;2023-07-16T04:09:02;100832.53;;;15.50;92.98
25238;BME280;13185;50.872;5.306;2023-07-16T04:11:27;100823.56;;;15.49;92.85
25238;BME280;13185;50.872;5.306;2023-07-16T04:13:53;100830.69;;;15.50;92.45
25238;BME280;13185;50.872;5.306;2023-07-16T04:16:18;100837.81;;;15.51;92.41
25238;BME280;13185;50.872;5.306;2023-07-16T04:18:44;100833.25;;;15.52;91.91
25238;BME280;13185;50.872;5.306;2023-07-16T04:21:09;100836.81;;;15.52;91.34
25238;BME280;13185;50.872;5.306;2023-07-16T04:23:35;100836.59;;;15.55;90.86
25238;BME280;13185;50.872;5.306;2023-07-16T04:26:00;100839.00;;;15.58;90.36
25238;BME280;13185;50.872;5.306;2023-07-16T04:28:26;100837.91;;;15.61;89.25
25238;BME280;13185;50.872;5.306;2023-07-16T04:30:51;100844.31;;;15.60;88.68
25238;BME280;13185;50.872;5.306;2023-07-16T04:33:17;100844.06;;;15.63;89.23
25238;BME280;13185;50.872;5.306;2023-07-16T04:35:44;100842.94;;;15.66;88.56
25238;BME280;13185;50.872;5.306;2023-07-16T04:38:09;100838.25;;;15.68;88.19
25238;BME280;13185;50.872;5.306;2023-07-16T04:40:35;100838.97;;;15.70;87.68
25238;BME280;13185;50.872;5.306;2023-07-16T04:43:00;100847.66;;;15.73;87.62
25238;BME280;13185;50.872;5.306;2023-07-16T04:45:26;100852.97;;;15.75;87.33
25238;BME280;13185;50.872;5.306;2023-07-16T04:47:51;100852.97;;;15.75;87.45
25238;BME280;13185;50.872;5.306;2023-07-16T04:50:17;100857.63;;;15.73;87.05
25238;BME280;13185;50.872;5.306;2023-07-16T04:52:42;100863.03;;;15.73;87.19
25238;BME280;13185;50.872;5.306;2023-07-16T04:55:08;100860.66;;;15.79;86.47
25238;BME280;13185;50.872;5.306;2023-07-16T04:57:34;100850.56;;;15.81;86.17
25238;BME280;13185;50.872;5.306;2023-07-16T04:59:59;100864.28;;;15.90;86.61
25238;BME280;13185;50.872;5.306;2023-07-16T05:02:25;100868.03;;;15.98;86.03
25238;BME280;13185;50.872;5.306;2023-07-16T05:04:50;100868.75;;;16.00;85.22
25238;BME280;13185;50.872;5.306;2023-07-16T05:07:16;100870.94;;;16.06;85.66
25238;BME280;13185;50.872;5.306;2023-07-16T05:09:44;100880.06;;;16.15;85.71
25238;BME280;13185;50.872;5.306;2023-07-16T05:12:10;100873.28;;;16.21;84.27
25238;BME280;13185;50.872;5.306;2023-07-16T05:14:46;100880.13;;;16.25;83.72
25238;BME280;13185;50.872;5.306;2023-07-16T05:17:13;100873.59;;;16.27;83.01
25238;BME280;13185;50.872;5.306;2023-07-16T05:19:38;100872.91;;;16.35;83.28
25238;BME280;13185;50.872;5.306;2023-07-16T05:22:04;100875.66;;;16.44;82.94
25238;BME280;13185;50.872;5.306;2023-07-16T05:24:30;100868.56;;;16.53;81.91
25238;BME280;13185;50.872;5.306;2023-07-16T05:26:56;100878.56;;;16.62;81.74
25238;BME280;13185;50.872;5.306;2023-07-16T05:29:21;100882.69;;;16.66;81.48
25238;BME280;13185;50.872;5.306;2023-07-16T05:31:47;100897.88;;;16.69;80.92
25238;BME280;13185;50.872;5.306;2023-07-16T05:34:13;100894.31;;;16.68;80.46
25238;BME280;13185;50.872;5.306;2023-07-16T05:36:39;100896.91;;;16.80;80.95
25238;BME280;13185;50.872;5.306;2023-07-16T05:39:04;100888.06;;;16.87;80.20
25238;BME280;13185;50.872;5.306;2023-07-16T05:41:30;100891.94;;;16.94;79.57
25238;BME280;13185;50.872;5.306;2023-07-16T05:43:55;100889.56;;;17.11;79.54
25238;BME280;13185;50.872;5.306;2023-07-16T05:46:21;100899.53;;;17.10;78.02
25238;BME280;13185;50.872;5.306;2023-07-16T05:48:53;100902.53;;;17.26;79.27
25238;BME280;13185;50.872;5.306;2023-07-16T05:51:18;100904.53;;;17.34;76.50
25238;BME280;13185;50.872;5.306;2023-07-16T05:53:44;100899.69;;;17.38;76.54
25238;BME280;13185;50.872;5.306;2023-07-16T05:56:09;100907.41;;;17.42;76.44
25238;BME280;13185;50.872;5.306;2023-07-16T05:58:35;100914.09;;;17.57;77.28
25238;BME280;13185;50.872;5.306;2023-07-16T06:01:00;100910.53;;;17.67;75.68
25238;BME280;13185;50.872;5.306;2023-07-16T06:03:26;100910.56;;;17.76;74.80
25238;BME280;13185;50.872;5.306;2023-07-16T06:05:51;100910.69;;;17.84;74.85
25238;BME280;13185;50.872;5.306;2023-07-16T06:08:17;100911.97;;;17.80;73.46
25238;BME280;13185;50.872;5.306;2023-07-16T06:10:43;100901.72;;;17.84;73.65
25238;BME280;13185;50.872;5.306;2023-07-16T06:13:08;100910.69;;;17.94;73.63
25238;BME280;13185;50.872;5.306;2023-07-16T06:15:34;100923.97;;;17.97;72.94
25238;BME280;13185;50.872;5.306;2023-07-16T06:17:59;100921.78;;;18.01;72.45
25238;BME280;13185;50.872;5.306;2023-07-16T06:20:28;100923.94;;;18.07;72.99
25238;BME280;13185;50.872;5.306;2023-07-16T06:22:54;100911.47;;;18.24;72.79
25238;BME280;13185;50.872;5.306;2023-07-16T06:25:19;100927.75;;;18.24;72.30
25238;BME280;13185;50.872;5.306;2023-07-16T06:27:45;100936.72;;;18.34;72.20
25238;BME280;13185;50.872;5.306;2023-07-16T06:30:13;100928.72;;;18.32;70.53
25238;BME280;13185;50.872;5.306;2023-07-16T06:32:39;100929.28;;;18.36;71.17
25238;BME280;13185;50.872;5.306;2023-07-16T06:35:04;100941.56;;;18.40;70.53
25238;BME280;13185;50.872;5.306;2023-07-16T06:37:30;100953.69;;;18.45;70.58
25238;BME280;13185;50.872;5.306;2023-07-16T06:39:56;100950.81;;;18.66;70.83
25238;BME280;13185;50.872;5.306;2023-07-16T06:42:22;100962.56;;;18.85;69.94
25238;BME280;13185;50.872;5.306;2023-07-16T06:44:48;100965.81;;;18.98;69.18
25238;BME280;13185;50.872;5.306;2023-07-16T06:47:13;100961.13;;;18.90;68.67
25238;BME280;13185;50.872;5.306;2023-07-16T06:49:39;100959.16;;;18.83;68.55
25238;BME280;13185;50.872;5.306;2023-07-16T06:52:05;100954.28;;;18.86;69.44
25238;BME280;13185;50.872;5.306;2023-07-16T06:54:33;100964.03;;;19.07;69.33
25238;BME280;13185;50.872;5.306;2023-07-16T06:56:59;100963.59;;;19.11;68.56
25238;BME280;13185;50.872;5.306;2023-07-16T06:59:25;100968.88;;;19.13;68.54
25238;BME280;13185;50.872;5.306;2023-07-16T07:01:51;100959.38;;;19.17;68.49
25238;BME280;13185;50.872;5.306;2023-07-16T07:04:18;100973.06;;;19.25;67.98
25238;BME280;13185;50.872;5.306;2023-07-16T07:06:44;100970.44;;;19.33;68.17
25238;BME280;13185;50.872;5.306;2023-07-16T07:09:09;100976.22;;;19.48;67.98
25238;BME280;13185;50.872;5.306;2023-07-16T07:11:35;100974.31;;;19.58;67.80
25238;BME280;13185;50.872;5.306;2023-07-16T07:14:00;100967.66;;;19.70;68.02
25238;BME280;13185;50.872;5.306;2023-07-16T07:16:26;100974.56;;;19.82;67.63
25238;BME280;13185;50.872;5.306;2023-07-16T07:18:51;100969.63;;;20.04;67.70
25238;BME280;13185;50.872;5.306;2023-07-16T07:21:17;100981.66;;;20.19;66.01
25238;BME280;13185;50.872;5.306;2023-07-16T07:23:42;100984.84;;;20.32;65.91
25238;BME280;13185;50.872;5.306;2023-07-16T07:26:08;100987.41;;;20.34;64.98
25238;BME280;13185;50.872;5.306;2023-07-16T07:28:33;100988.28;;;20.16;64.66
25238;BME280;13185;50.872;5.306;2023-07-16T07:30:59;100992.53;;;20.19;63.52
25238;BME280;13185;50.872;5.306;2023-07-16T07:33:24;100979.84;;;20.02;64.18
25238;BME280;13185;50.872;5.306;2023-07-16T07:35:53;100989.28;;;20.15;65.12
25238;BME280;13185;50.872;5.306;2023-07-16T07:38:19;100989.47;;;20.40;64.17
25238;BME280;13185;50.872;5.306;2023-07-16T07:40:45;100986.47;;;20.43;62.88
25238;BME280;13185;50.872;5.306;2023-07-16T07:43:10;100987.50;;;20.50;63.56
25238;BME280;13185;50.872;5.306;2023-07-16T07:45:36;100986.88;;;20.56;63.60
25238;BME280;13185;50.872;5.306;2023-07-16T07:48:01;100995.25;;;20.63;63.37
25238;BME280;13185;50.872;5.306;2023-07-16T07:50:27;100990.03;;;20.69;62.40
25238;BME280;13185;50.872;5.306;2023-07-16T07:52:54;100984.78;;;20.76;62.84
25238;BME280;13185;50.872;5.306;2023-07-16T07:55:21;100992.63;;;20.79;63.77
25238;BME280;13185;50.872;5.306;2023-07-16T07:57:46;100994.91;;;20.92;63.41
25238;BME280;13185;50.872;5.306;2023-07-16T08:00:12;101007.91;;;20.98;62.41
25238;BME280;13185;50.872;5.306;2023-07-16T08:02:38;101007.63;;;20.83;60.74
25238;BME280;13185;50.872;5.306;2023-07-16T08:05:04;101010.97;;;20.69;61.22
25238;BME280;13185;50.872;5.306;2023-07-16T08:07:29;101005.69;;;20.67;62.49
25238;BME280;13185;50.872;5.306;2023-07-16T08:09:55;101005.91;;;20.74;61.47
25238;BME280;13185;50.872;5.306;2023-07-16T08:12:20;101005.00;;;20.65;61.97
25238;BME280;13185;50.872;5.306;2023-07-16T08:14:47;101000.97;;;20.52;61.75
25238;BME280;13185;50.872;5.306;2023-07-16T08:17:13;101012.47;;;20.63;63.22
25238;BME280;13185;50.872;5.306;2023-07-16T08:19:38;101017.53;;;20.58;62.20
25238;BME280;13185;50.872;5.306;2023-07-16T08:22:04;101015.25;;;20.45;62.04
25238;BME280;13185;50.872;5.306;2023-07-16T08:24:30;101014.81;;;20.40;61.97
25238;BME280;13185;50.872;5.306;2023-07-16T08:26:55;101013.22;;;20.30;62.45
25238;BME280;13185;50.872;5.306;2023-07-16T08:29:21;101016.34;;;20.17;62.25
25238;BME280;13185;50.872;5.306;2023-07-16T08:31:46;101008.69;;;20.12;62.10
25238;BME280;13185;50.872;5.306;2023-07-16T08:34:12;101018.06;;;20.18;63.27
25238;BME280;13185;50.872;5.306;2023-07-16T08:36:37;101015.81;;;20.13;62.44
25238;BME280;13185;50.872;5.306;2023-07-16T08:39:03;101045.28;;;20.18;63.48
25238;BME280;13185;50.872;5.306;2023-07-16T08:41:29;101016.34;;;20.17;62.45
25238;BME280;13185;50.872;5.306;2023-07-16T08:43:56;101019.69;;;20.29;62.95
25238;BME280;13185;50.872;5.306;2023-07-16T08:46:22;101018.38;;;20.33;62.85
25238;BME280;13185;50.872;5.306;2023-07-16T08:48:48;101021.78;;;20.35;63.67
25238;BME280;13185;50.872;5.306;2023-07-16T08:51:15;101020.84;;;20.26;62.10
25238;BME280;13185;50.872;5.306;2023-07-16T08:53:41;101026.84;;;20.30;63.47
25238;BME280;13185;50.872;5.306;2023-07-16T08:56:07;101018.22;;;20.34;62.98
25238;BME280;13185;50.872;5.306;2023-07-16T08:58:33;101025.47;;;20.43;63.15
25238;BME280;13185;50.872;5.306;2023-07-16T09:01:03;101024.53;;;20.61;62.67
25238;BME280;13185;50.872;5.306;2023-07-16T09:03:29;101029.72;;;20.72;62.22
25238;BME280;13185;50.872;5.306;2023-07-16T09:05:55;101022.72;;;20.69;62.25
25238;BME280;13185;50.872;5.306;2023-07-16T09:08:21;101027.00;;;20.72;61.30
25238;BME280;13185;50.872;5.306;2023-07-16T09:10:56;101022.84;;;20.86;61.71
25238;BME280;13185;50.872;5.306;2023-07-16T09:13:23;101028.06;;;21.13;61.94
25238;BME280;13185;50.872;5.306;2023-07-16T09:15:56;101028.34;;;21.36;60.94
25238;BME280;13185;50.872;5.306;2023-07-16T09:18:24;101035.72;;;21.44;60.53
25238;BME280;13185;50.872;5.306;2023-07-16T09:21:00;101022.63;;;21.47;60.24
25238;BME280;13185;50.872;5.306;2023-07-16T09:23:29;101032.22;;;21.68;60.51
25238;BME280;13185;50.872;5.306;2023-07-16T09:25:55;101034.13;;;21.92;59.10
25238;BME280;13185;50.872;5.306;2023-07-16T09:28:21;101040.44;;;21.92;56.59
25238;BME280;13185;50.872;5.306;2023-07-16T09:30:47;101031.19;;;21.69;56.27
25238;BME280;13185;50.872;5.306;2023-07-16T09:33:18;101037.25;;;21.46;56.88
25238;BME280;13185;50.872;5.306;2023-07-16T09:35:49;101029.06;;;21.46;57.59
25238;BME280;13185;50.872;5.306;2023-07-16T09:38:15;101044.31;;;21.65;58.42
25238;BME280;13185;50.872;5.306;2023-07-16T09:40:41;101042.44;;;21.57;55.73
25238;BME280;13185;50.872;5.306;2023-07-16T09:43:08;101058.09;;;21.55;57.23
25238;BME280;13185;50.872;5.306;2023-07-16T09:45:34;101036.25;;;21.55;56.08
25238;BME280;13185;50.872;5.306;2023-07-16T09:48:01;101050.41;;;21.51;56.24
25238;BME280;13185;50.872;5.306;2023-07-16T09:50:37;101048.88;;;21.48;56.33
25238;BME280;13185;50.872;5.306;2023-07-16T09:53:04;101059.47;;;21.59;56.45
25238;BME280;13185;50.872;5.306;2023-07-16T09:55:34;101048.41;;;21.77;56.79
25238;BME280;13185;50.872;5.306;2023-07-16T09:58:08;101049.13;;;21.87;56.57
25238;BME280;13185;50.872;5.306;2023-07-16T10:00:36;101049.31;;;22.02;56.17
25238;BME280;13185;50.872;5.306;2023-07-16T10:03:07;101047.81;;;22.16;56.04
25238;BME280;13185;50.872;5.306;2023-07-16T10:05:35;101060.75;;;22.06;54.13
25238;BME280;13185;50.872;5.306;2023-07-16T10:08:02;101072.69;;;21.97;53.35
25238;BME280;13185;50.872;5.306;2023-07-16T10:10:46;101062.28;;;21.92;53.64
25238;BME280;13185;50.872;5.306;2023-07-16T10:13:17;101067.38;;;21.87;53.26
25238;BME280;13185;50.872;5.306;2023-07-16T10:15:58;101058.00;;;21.81;53.73
25238;BME280;13185;50.872;5.306;2023-07-16T10:18:31;101069.78;;;21.90;54.51
25238;BME280;13185;50.872;5.306;2023-07-16T10:21:07;101074.75;;;21.95;54.60
25238;BME280;13185;50.872;5.306;2023-07-16T10:23:43;101067.25;;;22.05;55.15
25238;BME280;13185;50.872;5.306;2023-07-16T10:26:11;101076.34;;;22.13;53.52
25238;BME280;13185;50.872;5.306;2023-07-16T10:28:38;101077.03;;;22.15;52.56
25238;BME280;13185;50.872;5.306;2023-07-16T10:31:05;101075.13;;;22.16;53.03
25238;BME280;13185;50.872;5.306;2023-07-16T10:33:33;101079.25;;;22.20;53.46
25238;BME280;13185;50.872;5.306;2023-07-16T10:35:59;101080.25;;;22.19;52.61
25238;BME280;13185;50.872;5.306;2023-07-16T10:38:25;101089.50;;;22.10;52.89
25238;BME280;13185;50.872;5.306;2023-07-16T10:40:51;101088.47;;;22.11;53.37
25238;BME280;13185;50.872;5.306;2023-07-16T10:43:17;101102.81;;;22.13;54.13
25238;BME280;13185;50.872;5.306;2023-07-16T10:45:46;101099.72;;;22.16;53.21
25238;BME280;13185;50.872;5.306;2023-07-16T10:48:12;101084.56;;;22.22;53.63
25238;BME280;13185;50.872;5.306;2023-07-16T10:51:02;101099.91;;;22.39;53.12
25238;BME280;13185;50.872;5.306;2023-07-16T10:53:27;101104.53;;;22.46;51.47
25238;BME280;13185;50.872;5.306;2023-07-16T10:55:54;101101.44;;;22.58;52.06
25238;BME280;13185;50.872;5.306;2023-07-16T11:01:41;101108.09;;;22.80;51.50
25238;BME280;13185;50.872;5.306;2023-07-16T11:04:32;101107.75;;;22.91;51.49
25238;BME280;13185;50.872;5.306;2023-07-16T11:06:59;101113.22;;;23.07;51.38
25238;BME280;13185;50.872;5.306;2023-07-16T11:09:24;101108.75;;;23.14;51.24
25238;BME280;13185;50.872;5.306;2023-07-16T11:11:50;101124.66;;;23.11;50.61
25238;BME280;13185;50.872;5.306;2023-07-16T11:14:18;101122.47;;;22.98;49.74
25238;BME280;13185;50.872;5.306;2023-07-16T11:16:44;101112.72;;;22.87;49.30
25238;BME280;13185;50.872;5.306;2023-07-16T11:19:09;101115.47;;;22.87;50.35
25238;BME280;13185;50.872;5.306;2023-07-16T11:21:36;101117.84;;;23.07;50.55
25238;BME280;13185;50.872;5.306;2023-07-16T11:24:28;101133.88;;;23.18;50.83
25238;BME280;13185;50.872;5.306;2023-07-16T11:26:55;101129.28;;;23.02;50.09
25238;BME280;13185;50.872;5.306;2023-07-16T11:29:23;101129.16;;;22.87;50.45
25238;BME280;13185;50.872;5.306;2023-07-16T11:31:52;101133.22;;;22.75;49.96
25238;BME280;13185;50.872;5.306;2023-07-16T11:34:21;101141.75;;;22.80;49.20
25238;BME280;13185;50.872;5.306;2023-07-16T11:36:48;101131.84;;;22.79;49.58
25238;BME280;13185;50.872;5.306;2023-07-16T11:39:14;101128.66;;;22.84;49.63
25238;BME280;13185;50.872;5.306;2023-07-16T11:41:39;101124.66;;;23.11;50.55
25238;BME280;13185;50.872;5.306;2023-07-16T11:44:07;101127.34;;;23.35;50.06
25238;BME280;13185;50.872;5.306;2023-07-16T11:46:33;101137.56;;;23.41;49.34
25238;BME280;13185;50.872;5.306;2023-07-16T11:49:02;101143.44;;;23.22;48.39
25238;BME280;13185;50.872;5.306;2023-07-16T11:51:27;101147.06;;;23.06;49.14
25238;BME280;13185;50.872;5.306;2023-07-16T11:53:55;101138.00;;;23.14;49.00
25238;BME280;13185;50.872;5.306;2023-07-16T11:56:21;101145.13;;;23.23;49.29
25238;BME280;13185;50.872;5.306;2023-07-16T11:58:47;101147.72;;;23.16;49.14
25238;BME280;13185;50.872;5.306;2023-07-16T12:01:12;101151.16;;;23.18;48.63
25238;BME280;13185;50.872;5.306;2023-07-16T12:03:40;101136.25;;;23.29;48.52
25238;BME280;13185;50.872;5.306;2023-07-16T12:06:05;101146.13;;;23.46;49.31
25238;BME280;13185;50.872;5.306;2023-07-16T12:08:31;101135.78;;;23.65;48.69
25238;BME280;13185;50.872;5.306;2023-07-16T12:10:56;101142.91;;;23.82;48.92
25238;BME280;13185;50.872;5.306;2023-07-16T12:13:21;101139.69;;;24.09;48.22
25238;BME280;13185;50.872;5.306;2023-07-16T12:15:47;101142.97;;;24.28;47.83
25238;BME280;13185;50.872;5.306;2023-07-16T12:18:12;101139.56;;;24.26;46.90
25238;BME280;13185;50.872;5.306;2023-07-16T12:20:38;101134.19;;;24.09;46.31
25238;BME280;13185;50.872;5.306;2023-07-16T12:23:05;101143.88;;;24.20;47.23
25238;BME280;13185;50.872;5.306;2023-07-16T12:25:30;101144.66;;;24.37;47.63
25238;BME280;13185;50.872;5.306;2023-07-16T12:27:56;101139.53;;;24.57;47.90
25238;BME280;13185;50.872;5.306;2023-07-16T12:30:24;101146.84;;;24.64;46.86
25238;BME280;13185;50.872;5.306;2023-07-16T12:32:50;101133.69;;;24.37;45.77
25238;BME280;13185;50.872;5.306;2023-07-16T12:35:15;101131.03;;;24.21;45.82
25238;BME280;13185;50.872;5.306;2023-07-16T12:37:41;101130.94;;;24.06;46.84
25238;BME280;13185;50.872;5.306;2023-07-16T12:40:07;101137.13;;;24.08;47.10
25238;BME280;13185;50.872;5.306;2023-07-16T12:42:33;101132.41;;;23.94;47.04
25238;BME280;13185;50.872;5.306;2023-07-16T12:44:58;101136.84;;;23.95;46.88
25238;BME280;13185;50.872;5.306;2023-07-16T12:47:24;101130.09;;;24.05;46.99
25238;BME280;13185;50.872;5.306;2023-07-16T12:49:49;101123.50;;;24.23;47.33
25238;BME280;13185;50.872;5.306;2023-07-16T12:52:15;101137.81;;;24.56;47.80
25238;BME280;13185;50.872;5.306;2023-07-16T12:54:40;101132.75;;;24.67;46.05